Date,TemperatureHighF,TemperatureAvgF,TemperatureLowF,DewpointHighF,DewpointAvgF,DewpointLowF,HumidityHigh,HumidityAvg,HumidityLow,PressureMaxIn,PressureMinIn,WindSpeedMaxMPH,WindSpeedAvgMPH,GustSpeedMaxMPH,PrecipitationSumIn
2013-10-1,74,69,64,66,65,64,99,87,71,0.00,40.00,2,1,2,0.00
2013-10-2,86,71,59,68,63,59,100,80,45,0.00,40.00,4,2,9,0.00
2013-10-3,88,72,60,68,64,60,100,79,45,0.00,40.00,4,2,9,0.00
2013-10-4,88,73,61,68,65,61,100,79,47,0.00,40.00,3,2,9,0.00
2013-10-5,90,75,63,71,66,62,100,77,43,0.00,40.00,4,2,9,0.00
2013-10-6,84,72,66,71,67,63,100,86,60,0.00,40.00,4,2,14,0.99
2013-10-7,74,63,54,70,55,50,100,78,44,0.00,40.00,6,3,17,1.51
2013-10-8,80,64,48,64,56,47,99,78,53,0.00,40.00,5,2,11,0.00
2013-10-9,80,69,61,63,59,55,97,73,48,0.00,40.00,4,2,10,0.00
2013-10-10,82,68,56,65,61,56,100,82,49,0.00,40.00,3,2,7,0.01
2013-10-11,82,66,54,65,59,54,100,81,47,0.00,40.00,4,2,12,0.01
2013-10-12,84,65,52,65,56,-100,100,77,40,0.00,40.00,4,2,10,0.00
2013-10-13,84,67,54,64,58,54,100,78,41,0.00,40.00,5,2,12,0.00
2013-10-14,82,66,55,66,60,55,100,83,52,0.00,40.00,4,2,11,0.00
2013-10-15,75,65,57,65,60,57,100,86,60,0.00,40.00,3,2,7,0.00
2013-10-16,76,66,56,65,61,56,100,86,64,0.00,40.00,3,2,6,0.00
2013-10-17,71,67,62,69,65,59,99,93,83,0.00,40.00,4,2,9,0.45
2013-10-18,71,60,50,59,53,48,99,81,48,0.00,40.00,4,2,11,0.01
2013-10-19,71,59,53,61,55,-100,99,89,58,0.00,40.00,3,2,7,0.03
2013-10-20,71,54,43,51,45,39,99,78,31,0.00,40.00,3,2,8,0.01
2013-10-21,71,54,38,55,47,38,99,81,43,0.00,40.00,3,2,6,0.01
2013-10-22,77,63,54,60,53,44,99,75,35,0.00,40.00,3,2,9,0.02
2013-10-23,65,54,40,52,43,33,98,70,35,0.00,40.00,6,3,14,0.01
2013-10-24,67,47,35,47,34,-100,98,74,32,0.00,40.00,3,2,7,0.00
2013-10-25,57,46,33,47,32,24,96,62,29,0.00,40.00,5,3,11,0.00
2013-10-26,66,44,28,40,30,-100,97,70,23,0.00,40.00,3,2,7,0.00
2013-10-27,77,56,39,55,46,38,99,75,40,0.00,40.00,3,2,9,0.05
2013-10-28,69,59,53,63,58,53,100,94,71,0.00,40.00,3,2,6,0.15
2013-10-29,80,63,53,62,57,53,100,85,46,0.00,40.00,3,2,7,0.02
2013-10-30,81,65,54,63,57,54,100,81,40,0.00,40.00,3,1,6,0.00
2013-10-31,77,68,58,68,61,54,95,81,66,0.00,40.00,5,3,14,0.08